Time;durP1;ratioP1;P1;durP2;ratioP2;P2;SDS_P1;SDS_P2;PMS_P1;PMS_P2;Temp;Humidity;BMP_temperature;BMP_pressure;BME280_temperature;BME280_humidity;BME280_pressure;Samples;Min_cycle;Max_cycle;Signal;HPM_P1;HPM_P2
2023/03/24 00:02:05;;;;;;;;;;;;;;;;;;5073072;28;19927;-61
2023/03/24 00:04:31;;;;;;;;;;;;;;;;;;5073547;28;20461;-61
2023/03/24 00:06:57;;;;;;;;;;;;;;;;;;5072606;28;19942;-61
2023/03/24 00:09:23;;;;;;;;;;;;;;;;;;5038326;28;19920;-61
2023/03/24 00:11:49;;;;;;;;;;;;;;;;;;5072457;28;20653;-61
2023/03/24 00:14:15;;;;;;;;;;;;;;;;;;5055481;28;19925;-61
2023/03/24 00:16:45;;;;;;;;;;;;;;;;;;5053814;28;19928;-61
2023/03/24 00:19:13;;;;;;;;;;;;;;;;;;5072627;28;19925;-61
2023/03/24 00:21:40;;;;;;;;;;;;;;;;;;5055058;28;19924;-61
2023/03/24 00:24:06;;;;;;;;;;;;;;;;;;5071329;28;19920;-61
2023/03/24 00:26:32;;;;;;;;;;;;;;;;;;5071632;28;19974;-61
2023/03/24 00:28:58;;;;;;;;;;;;;;;;;;5072050;28;19920;-61
2023/03/24 00:31:24;;;;;;;;;;;;;;;;;;5071976;28;20019;-61
2023/03/24 00:33:50;;;;;;;;;;;;;;;;;;5053523;28;20012;-61
2023/03/24 00:36:17;;;;;;;;;;;;;;;;;;5072668;28;19978;-62
2023/03/24 00:38:42;;;;;;;;;;;;;;;;;;5054038;28;19920;-61
2023/03/24 00:41:09;;;;;;;;;;;;;;;;;;5046871;28;20383;-61
2023/03/24 00:43:35;;;;;;;;;;;;;;;;;;5071191;28;19963;-61
2023/03/24 00:46:02;;;;;;;;;;;;;;;;;;5072094;28;19967;-61
2023/03/24 00:48:28;;;;;;;;;;;;;;;;;;5053594;28;19931;-61
2023/03/24 00:50:54;;;;;;;;;;;;;;;;;;5070966;28;19920;-61
2023/03/24 00:53:22;;;;;;;;;;;;;;;;;;5070888;28;19966;-61
2023/03/24 00:55:48;;;;;;;;;;;;;;;;;;5069982;28;19960;-61
2023/03/24 00:58:18;;;;;;;;;;;;;;;;;;5070931;28;20460;-61
2023/03/24 01:00:44;;;;;;;;;;;;;;;;;;5052610;28;19920;-61
2023/03/24 01:03:10;;;;;;;;;;;;;;;;;;5071224;28;19927;-61
2023/03/24 01:05:36;;;;;;;;;;;;;;;;;;5053278;28;20368;-61
2023/03/24 01:08:02;;;;;;;;;;;;;;;;;;5070621;28;19924;-61
2023/03/24 01:10:28;;;;;;;;;;;;;;;;;;5070325;28;19935;-61
2023/03/24 01:12:54;;;;;;;;;;;;;;;;;;5068723;28;19932;-61
2023/03/24 01:15:20;;;;;;;;;;;;;;;;;;5071691;28;20328;-61
2023/03/24 01:17:47;;;;;;;;;;;;;;;;;;5071922;28;19921;-61
2023/03/24 01:20:13;;;;;;;;;;;;;;;;;;5071191;28;20596;-61
2023/03/24 01:22:39;;;;;;;;;;;;;;;;;;5071925;28;19928;-61
2023/03/24 01:25:05;;;;;;;;;;;;;;;;;;5067948;28;20354;-61
2023/03/24 01:27:31;;;;;;;;;;;;;;;;;;5050361;28;19962;-61
2023/03/24 01:29:57;;;;;;;;;;;;;;;;;;5071397;28;19931;-61
2023/03/24 01:32:22;;;;;;;;;;;;;;;;;;5070894;28;19928;-60
2023/03/24 01:34:48;;;;;;;;;;;;;;;;;;5066935;28;19934;-61
2023/03/24 01:37:14;;;;;;;;;;;;;;;;;;5071740;28;20277;-61
2023/03/24 01:39:40;;;;;;;;;;;;;;;;;;5071451;28;20416;-61
2023/03/24 01:42:06;;;;;;;;;;;;;;;;;;5037090;28;19920;-61
2023/03/24 01:44:32;;;;;;;;;;;;;;;;;;5071542;28;19928;-61
2023/03/24 01:46:58;;;;;;;;;;;;;;;;;;5070248;28;20270;-61
2023/03/24 01:49:24;;;;;;;;;;;;;;;;;;5069677;28;20400;-61
2023/03/24 01:51:50;;;;;;;;;;;;;;;;;;5070923;28;19935;-61
2023/03/24 01:54:16;;;;;;;;;;;;;;;;;;5071970;28;19921;-61
2023/03/24 01:56:42;;;;;;;;;;;;;;;;;;5070800;28;20863;-61
2023/03/24 01:59:07;;;;;;;;;;;;;;;;;;5070637;28;19967;-61
2023/03/24 02:01:34;;;;;;;;;;;;;;;;;;5050482;28;19924;-62
2023/03/24 02:04:02;;;;;;;;;;;;;;;;;;5072060;28;20423;-62
2023/03/24 02:06:28;;;;;;;;;;;;;;;;;;5071724;28;19928;-62
2023/03/24 02:08:54;;;;;;;;;;;;;;;;;;5071872;28;19924;-62
2023/03/24 02:11:20;;;;;;;;;;;;;;;;;;5071977;28;19936;-62
2023/03/24 02:13:46;;;;;;;;;;;;;;;;;;5070992;28;19942;-62
2023/03/24 02:16:12;;;;;;;;;;;;;;;;;;5070052;28;19924;-62
2023/03/24 02:18:43;;;;;;;;;;;;;;;;;;5075070;28;19977;-62
2023/03/24 02:21:09;;;;;;;;;;;;;;;;;;5074912;28;21426;-62
2023/03/24 02:23:35;;;;;;;;;;;;;;;;;;5076536;28;20417;-61
2023/03/24 02:26:02;;;;;;;;;;;;;;;;;;5059144;28;20015;-61
2023/03/24 02:28:28;;;;;;;;;;;;;;;;;;5077608;28;19931;-61
2023/03/24 02:30:54;;;;;;;;;;;;;;;;;;5076111;28;19920;-61
2023/03/24 02:33:21;;;;;;;;;;;;;;;;;;5076707;28;20315;-64
2023/03/24 02:35:47;;;;;;;;;;;;;;;;;;5076713;28;19920;-65
2023/03/24 02:38:13;;;;;;;;;;;;;;;;;;5076096;28;20433;-65
2023/03/24 02:40:39;;;;;;;;;;;;;;;;;;5076707;28;20325;-65
2023/03/24 02:43:05;;;;;;;;;;;;;;;;;;5075682;28;19928;-65
2023/03/24 02:45:31;;;;;;;;;;;;;;;;;;5076370;28;19948;-64
2023/03/24 02:47:57;;;;;;;;;;;;;;;;;;5077004;28;19985;-65
2023/03/24 02:50:23;;;;;;;;;;;;;;;;;;5075991;28;19925;-64
2023/03/24 02:52:49;;;;;;;;;;;;;;;;;;5075331;28;19928;-65
2023/03/24 02:55:15;;;;;;;;;;;;;;;;;;5073961;28;19964;-65
2023/03/24 02:57:41;;;;;;;;;;;;;;;;;;5077260;28;20025;-65
2023/03/24 03:00:08;;;;;;;;;;;;;;;;;;5076668;28;19924;-64
2023/03/24 03:02:34;;;;;;;;;;;;;;;;;;5058039;28;19920;-65
2023/03/24 03:05:02;;;;;;;;;;;;;;;;;;5076605;28;19920;-65
2023/03/24 03:07:28;;;;;;;;;;;;;;;;;;5077228;28;20038;-65
2023/03/24 03:09:54;;;;;;;;;;;;;;;;;;5077039;28;19924;-65
2023/03/24 03:12:20;;;;;;;;;;;;;;;;;;5073374;28;19947;-65
2023/03/24 03:14:46;;;;;;;;;;;;;;;;;;5076786;28;19924;-65
2023/03/24 03:17:13;;;;;;;;;;;;;;;;;;5076386;28;19924;-65
2023/03/24 03:19:39;;;;;;;;;;;;;;;;;;5076441;28;19925;-65
2023/03/24 03:22:05;;;;;;;;;;;;;;;;;;5075975;28;20604;-65
2023/03/24 03:24:31;;;;;;;;;;;;;;;;;;5076187;28;19925;-65
2023/03/24 03:26:57;;;;;;;;;;;;;;;;;;5056139;28;19920;-64
2023/03/24 03:29:23;;;;;;;;;;;;;;;;;;5073641;28;19927;-65
2023/03/24 03:31:51;;;;;;;;;;;;;;;;;;5072500;28;20027;-65
2023/03/24 03:34:17;;;;;;;;;;;;;;;;;;5055403;28;19934;-64
2023/03/24 03:36:43;;;;;;;;;;;;;;;;;;5072947;28;19920;-65
2023/03/24 03:39:09;;;;;;;;;;;;;;;;;;5070335;28;19932;-65
2023/03/24 03:41:35;;;;;;;;;;;;;;;;;;5072741;28;19973;-64
2023/03/24 03:44:01;;;;;;;;;;;;;;;;;;5055258;28;19925;-65
2023/03/24 03:46:27;;;;;;;;;;;;;;;;;;5054193;28;20011;-64
2023/03/24 03:48:52;;;;;;;;;;;;;;;;;;5071767;28;20283;-64
2023/03/24 03:51:18;;;;;;;;;;;;;;;;;;5072036;28;19928;-64
2023/03/24 03:53:45;;;;;;;;;;;;;;;;;;5053495;28;19978;-65
2023/03/24 03:56:11;;;;;;;;;;;;;;;;;;5069730;28;19927;-65
2023/03/24 03:58:38;;;;;;;;;;;;;;;;;;5066956;28;19921;-65
2023/03/24 04:01:05;;;;;;;;;;;;;;;;;;5054797;28;19921;-65
2023/03/24 04:03:31;;;;;;;;;;;;;;;;;;5054963;28;19925;-65
2023/03/24 04:06:00;;;;;;;;;;;;;;;;;;5070298;28;20007;-66
2023/03/24 04:08:26;;;;;;;;;;;;;;;;;;5053600;28;20354;-65
2023/03/24 04:10:52;;;;;;;;;;;;;;;;;;5053571;28;20399;-65
2023/03/24 04:13:18;;;;;;;;;;;;;;;;;;5069038;28;19924;-65
2023/03/24 04:15:44;;;;;;;;;;;;;;;;;;5071263;28;19928;-65
2023/03/24 04:18:10;;;;;;;;;;;;;;;;;;5068319;28;20262;-66
2023/03/24 04:20:37;;;;;;;;;;;;;;;;;;5070661;28;19985;-66
2023/03/24 04:23:03;;;;;;;;;;;;;;;;;;5070211;28;20478;-65
2023/03/24 04:25:29;;;;;;;;;;;;;;;;;;5070048;28;20015;-66
2023/03/24 04:27:55;;;;;;;;;;;;;;;;;;5072203;28;20059;-65
2023/03/24 04:30:22;;;;;;;;;;;;;;;;;;5036244;28;19920;-65
2023/03/24 04:32:48;;;;;;;;;;;;;;;;;;5053052;28;19928;-66
2023/03/24 04:35:14;;;;;;;;;;;;;;;;;;5071999;28;19928;-65
2023/03/24 04:37:39;;;;;;;;;;;;;;;;;;5053560;28;20050;-66
2023/03/24 04:40:06;;;;;;;;;;;;;;;;;;5072482;28;19921;-66
2023/03/24 04:42:32;;;;;;;;;;;;;;;;;;5071866;28;19925;-65
2023/03/24 04:44:58;;;;;;;;;;;;;;;;;;5069887;28;20278;-66
2023/03/24 04:47:23;;;;;;;;;;;;;;;;;;5071451;28;19921;-66
2023/03/24 04:49:49;;;;;;;;;;;;;;;;;;5072549;28;19951;-66
2023/03/24 04:52:15;;;;;;;;;;;;;;;;;;5072201;28;20062;-65
2023/03/24 04:54:41;;;;;;;;;;;;;;;;;;5071223;28;19920;-66
2023/03/24 04:57:07;;;;;;;;;;;;;;;;;;5053336;28;19920;-65
2023/03/24 04:59:33;;;;;;;;;;;;;;;;;;5069689;28;19982;-66
2023/03/24 05:01:59;;;;;;;;;;;;;;;;;;5067097;28;20374;-66
2023/03/24 05:04:25;;;;;;;;;;;;;;;;;;5071193;28;20265;-66
2023/03/24 05:06:51;;;;;;;;;;;;;;;;;;5070428;28;19974;-65
2023/03/24 05:09:17;;;;;;;;;;;;;;;;;;5071530;28;19920;-65
2023/03/24 05:11:43;;;;;;;;;;;;;;;;;;5051348;28;19934;-65
2023/03/24 05:14:08;;;;;;;;;;;;;;;;;;5071855;28;19925;-65
2023/03/24 05:16:35;;;;;;;;;;;;;;;;;;5052995;28;20042;-65
2023/03/24 05:19:01;;;;;;;;;;;;;;;;;;5070510;28;20609;-65
2023/03/24 05:21:27;;;;;;;;;;;;;;;;;;5071768;28;19927;-66
2023/03/24 05:23:53;;;;;;;;;;;;;;;;;;5071327;28;19921;-65
2023/03/24 05:26:19;;;;;;;;;;;;;;;;;;5051600;28;19952;-66
2023/03/24 05:28:45;;;;;;;;;;;;;;;;;;5071588;28;20392;-66
2023/03/24 05:31:11;;;;;;;;;;;;;;;;;;5069416;28;20031;-65
2023/03/24 05:33:37;;;;;;;;;;;;;;;;;;5067886;28;19925;-65
2023/03/24 05:36:02;;;;;;;;;;;;;;;;;;5068868;28;20281;-65
2023/03/24 05:38:28;;;;;;;;;;;;;;;;;;5070488;28;19928;-66
2023/03/24 05:40:54;;;;;;;;;;;;;;;;;;5070900;28;19966;-66
2023/03/24 05:43:20;;;;;;;;;;;;;;;;;;5071967;28;19920;-65
2023/03/24 05:45:46;;;;;;;;;;;;;;;;;;5043851;28;19944;-65
2023/03/24 05:48:12;;;;;;;;;;;;;;;;;;5038912;28;19924;-65
2023/03/24 05:50:38;;;;;;;;;;;;;;;;;;5053990;28;20281;-66
2023/03/24 05:53:04;;;;;;;;;;;;;;;;;;5071324;28;19925;-66
2023/03/24 05:55:30;;;;;;;;;;;;;;;;;;5071904;28;19931;-66
2023/03/24 05:57:56;;;;;;;;;;;;;;;;;;5071839;28;20546;-66
2023/03/24 06:00:23;;;;;;;;;;;;;;;;;;5053759;28;19921;-65
2023/03/24 06:02:49;;;;;;;;;;;;;;;;;;5071869;28;20456;-66
2023/03/24 06:05:15;;;;;;;;;;;;;;;;;;5070615;28;20270;-66
2023/03/24 06:07:41;;;;;;;;;;;;;;;;;;5042242;28;19927;-65
2023/03/24 06:10:08;;;;;;;;;;;;;;;;;;5059566;28;19925;-66
2023/03/24 06:12:34;;;;;;;;;;;;;;;;;;5054787;28;19966;-66
2023/03/24 06:15:00;;;;;;;;;;;;;;;;;;5073633;28;19921;-65
2023/03/24 06:17:27;;;;;;;;;;;;;;;;;;5073624;28;19924;-66
2023/03/24 06:19:53;;;;;;;;;;;;;;;;;;5070875;28;19927;-66
2023/03/24 06:22:19;;;;;;;;;;;;;;;;;;5071579;28;19928;-66
2023/03/24 06:24:45;;;;;;;;;;;;;;;;;;5071883;28;19974;-65
2023/03/24 06:27:13;;;;;;;;;;;;;;;;;;5071597;28;19920;-65
2023/03/24 06:29:41;;;;;;;;;;;;;;;;;;5052058;28;19925;-66
2023/03/24 06:32:07;;;;;;;;;;;;;;;;;;5071663;28;19962;-65
2023/03/24 06:34:33;;;;;;;;;;;;;;;;;;5071506;28;19946;-65
2023/03/24 06:36:58;;;;;;;;;;;;;;;;;;5071540;28;20385;-65
2023/03/24 06:39:25;;;;;;;;;;;;;;;;;;5071270;28;19925;-66
2023/03/24 06:41:51;;;;;;;;;;;;;;;;;;5071661;28;19959;-66
2023/03/24 06:44:17;;;;;;;;;;;;;;;;;;5070197;28;19920;-66
2023/03/24 06:46:44;;;;;;;;;;;;;;;;;;5051599;28;19928;-66
2023/03/24 06:49:10;;;;;;;;;;;;;;;;;;5051359;28;19924;-66
2023/03/24 06:51:36;;;;;;;;;;;;;;;;;;5051339;28;19975;-65
2023/03/24 06:54:02;;;;;;;;;;;;;;;;;;5051506;28;19925;-65
2023/03/24 06:56:29;;;;;;;;;;;;;;;;;;5054174;28;20335;-65
2023/03/24 06:58:55;;;;;;;;;;;;;;;;;;5055710;28;19931;-65
2023/03/24 07:01:21;;;;;;;;;;;;;;;;;;5065233;28;19921;-65
2023/03/24 07:03:48;;;;;;;;;;;;;;;;;;5068029;28;19920;-67
2023/03/24 07:06:14;;;;;;;;;;;;;;;;;;5064162;28;19925;-65
2023/03/24 07:08:40;;;;;;;;;;;;;;;;;;5039636;28;20383;-65
2023/03/24 07:11:07;;;;;;;;;;;;;;;;;;5072715;28;20019;-65
2023/03/24 07:13:33;;;;;;;;;;;;;;;;;;5073476;28;19963;-66
2023/03/24 07:15:59;;;;;;;;;;;;;;;;;;5069922;28;19960;-66
2023/03/24 07:18:25;;;;;;;;;;;;;;;;;;5073137;28;19925;-65
2023/03/24 07:20:51;;;;;;;;;;;;;;;;;;5053505;28;19924;-65
2023/03/24 07:23:16;;;;;;;;;;;;;;;;;;5074199;28;19920;-65
2023/03/24 07:25:43;;;;;;;;;;;;;;;;;;5074086;28;19934;-65
2023/03/24 07:28:09;;;;;;;;;;;;;;;;;;5054614;28;19928;-65
2023/03/24 07:30:35;;;;;;;;;;;;;;;;;;5072737;28;20605;-66
2023/03/24 07:33:01;;;;;;;;;;;;;;;;;;5073896;28;19924;-65
2023/03/24 07:35:27;;;;;;;;;;;;;;;;;;5064801;28;19981;-66
2023/03/24 07:37:53;;;;;;;;;;;;;;;;;;5074352;28;19924;-65
2023/03/24 07:40:19;;;;;;;;;;;;;;;;;;5073886;28;19925;-65
2023/03/24 07:42:46;;;;;;;;;;;;;;;;;;5071780;28;19928;-65
2023/03/24 07:45:12;;;;;;;;;;;;;;;;;;5069818;28;20063;-66
2023/03/24 07:47:37;;;;;;;;;;;;;;;;;;5072523;28;20015;-65
2023/03/24 07:50:08;;;;;;;;;;;;;;;;;;5073458;28;19998;-65
2023/03/24 07:52:34;;;;;;;;;;;;;;;;;;5072952;28;20288;-62
2023/03/24 07:55:00;;;;;;;;;;;;;;;;;;5055919;28;19928;-62
2023/03/24 07:57:26;;;;;;;;;;;;;;;;;;5074126;28;19931;-62
2023/03/24 07:59:52;;;;;;;;;;;;;;;;;;5063685;28;19921;-62
2023/03/24 08:02:18;;;;;;;;;;;;;;;;;;5052910;28;19920;-61
2023/03/24 08:04:44;;;;;;;;;;;;;;;;;;5070867;28;20010;-62
2023/03/24 08:07:11;;;;;;;;;;;;;;;;;;5072912;28;19936;-62
2023/03/24 08:09:38;;;;;;;;;;;;;;;;;;5054213;28;19924;-62
2023/03/24 08:12:04;;;;;;;;;;;;;;;;;;5072807;28;19928;-62
2023/03/24 08:14:30;;;;;;;;;;;;;;;;;;5072253;28;19928;-61
2023/03/24 08:16:55;;;;;;;;;;;;;;;;;;5054486;28;20305;-62
2023/03/24 08:19:21;;;;;;;;;;;;;;;;;;5072523;28;19932;-62
2023/03/24 08:21:47;;;;;;;;;;;;;;;;;;5052301;28;19950;-62
2023/03/24 08:24:13;;;;;;;;;;;;;;;;;;5046331;28;19995;-62
2023/03/24 08:26:41;;;;;;;;;;;;;;;;;;5070585;28;19930;-62
2023/03/24 08:29:07;;;;;;;;;;;;;;;;;;5053305;28;19920;-62
2023/03/24 08:31:33;;;;;;;;;;;;;;;;;;5051768;28;19925;-62
2023/03/24 08:33:59;;;;;;;;;;;;;;;;;;5070504;28;19932;-62
2023/03/24 08:36:28;;;;;;;;;;;;;;;;;;5073414;28;19921;-62
2023/03/24 08:38:54;;;;;;;;;;;;;;;;;;5063694;28;19921;-61
2023/03/24 08:41:20;;;;;;;;;;;;;;;;;;5072573;28;19978;-62
2023/03/24 08:43:46;;;;;;;;;;;;;;;;;;5070617;28;19920;-62
2023/03/24 08:46:14;;;;;;;;;;;;;;;;;;5069027;28;19939;-61
2023/03/24 08:48:40;;;;;;;;;;;;;;;;;;5073123;28;19924;-62
2023/03/24 08:51:06;;;;;;;;;;;;;;;;;;5055145;28;20281;-62
2023/03/24 08:53:32;;;;;;;;;;;;;;;;;;5073137;28;19921;-61
2023/03/24 08:55:58;;;;;;;;;;;;;;;;;;5055070;28;19927;-62
2023/03/24 08:58:24;;;;;;;;;;;;;;;;;;5071831;28;19921;-62
2023/03/24 09:00:51;;;;;;;;;;;;;;;;;;5072865;28;20361;-62
2023/03/24 09:03:16;;;;;;;;;;;;;;;;;;5070423;28;22623;-62
2023/03/24 09:05:42;;;;;;;;;;;;;;;;;;5052180;28;19928;-61
2023/03/24 09:08:08;;;;;;;;;;;;;;;;;;5052703;28;19932;-61
2023/03/24 09:10:34;;;;;;;;;;;;;;;;;;5052814;28;20404;-61
2023/03/24 09:13:00;;;;;;;;;;;;;;;;;;5052097;28;19925;-62
2023/03/24 09:15:26;;;;;;;;;;;;;;;;;;5052076;28;20366;-63
2023/03/24 09:17:52;;;;;;;;;;;;;;;;;;5034434;28;19975;-61
2023/03/24 09:20:18;;;;;;;;;;;;;;;;;;5046033;28;19920;-61
2023/03/24 09:22:44;;;;;;;;;;;;;;;;;;5053621;28;19959;-61
2023/03/24 09:25:10;;;;;;;;;;;;;;;;;;5069184;28;19925;-62
2023/03/24 09:27:36;;;;;;;;;;;;;;;;;;5063037;28;19986;-61
2023/03/24 09:30:03;;;;;;;;;;;;;;;;;;5062195;28;21294;-61
2023/03/24 09:32:29;;;;;;;;;;;;;;;;;;5035219;28;19939;-61
2023/03/24 09:34:56;;;;;;;;;;;;;;;;;;5069083;28;19925;-61
2023/03/24 09:37:21;;;;;;;;;;;;;;;;;;5063088;28;20407;-61
2023/03/24 09:39:48;;;;;;;;;;;;;;;;;;5072063;28;19924;-62
2023/03/24 09:42:14;;;;;;;;;;;;;;;;;;5052925;28;20330;-61
2023/03/24 09:44:40;;;;;;;;;;;;;;;;;;5071924;28;20015;-62
2023/03/24 09:47:06;;;;;;;;;;;;;;;;;;5052299;28;20024;-62
2023/03/24 09:49:31;;;;;;;;;;;;;;;;;;5102380;22;20022;-62
2023/03/24 09:51:57;;;;;;;;;;;;;;;;;;5091296;28;19928;-61
2023/03/24 09:54:23;;;;;;;;;;;;;;;;;;5069559;28;20358;-62
2023/03/24 09:56:49;;;;;;;;;;;;;;;;;;5089973;28;19982;-61
2023/03/24 09:59:15;;;;;;;;;;;;;;;;;;5082660;28;19971;-62
2023/03/24 10:01:41;;;;;;;;;;;;;;;;;;5077961;28;20349;-61
2023/03/24 10:04:07;;;;;;;;;;;;;;;;;;5089006;28;19970;-62
2023/03/24 10:06:33;;;;;;;;;;;;;;;;;;5090771;28;19931;-62
2023/03/24 10:08:59;;;;;;;;;;;;;;;;;;5073472;28;19924;-62
2023/03/24 10:11:25;;;;;;;;;;;;;;;;;;5090424;28;19931;-62
2023/03/24 10:13:51;;;;;;;;;;;;;;;;;;5066097;28;19920;-62
2023/03/24 10:16:16;;;;;;;;;;;;;;;;;;5082822;28;20382;-62
2023/03/24 10:18:42;;;;;;;;;;;;;;;;;;5072061;28;19925;-62
2023/03/24 10:21:08;;;;;;;;;;;;;;;;;;5082609;28;19930;-62
2023/03/24 10:23:34;;;;;;;;;;;;;;;;;;5089343;28;20375;-62
2023/03/24 10:26:00;;;;;;;;;;;;;;;;;;5070186;28;19931;-62
2023/03/24 10:28:26;;;;;;;;;;;;;;;;;;5068230;28;19920;-62
2023/03/24 10:30:52;;;;;;;;;;;;;;;;;;5080666;28;19920;-62
2023/03/24 10:33:19;;;;;;;;;;;;;;;;;;5087861;28;19924;-62
2023/03/24 10:35:46;;;;;;;;;;;;;;;;;;5085343;28;19971;-62
2023/03/24 10:38:11;;;;;;;;;;;;;;;;;;5075179;28;20304;-62
2023/03/24 10:40:37;;;;;;;;;;;;;;;;;;5057700;28;19925;-62
2023/03/24 10:43:03;;;;;;;;;;;;;;;;;;5090878;28;19927;-62
2023/03/24 10:45:29;;;;;;;;;;;;;;;;;;5094174;28;19924;-62
2023/03/24 10:47:55;;;;;;;;;;;;;;;;;;5062389;28;19929;-62
2023/03/24 10:50:21;;;;;;;;;;;;;;;;;;5094829;28;19928;-62
2023/03/24 10:52:49;;;;;;;;;;;;;;;;;;5095564;28;20533;-62
2023/03/24 10:55:15;;;;;;;;;;;;;;;;;;5093440;28;19927;-62
2023/03/24 10:57:41;;;;;;;;;;;;;;;;;;5094749;28;19954;-63
2023/03/24 11:00:17;;;;;;;;;;;;;;;;;;5086498;28;19920;-63
2023/03/24 11:02:43;;;;;;;;;;;;;;;;;;5095149;28;19920;-63
2023/03/24 11:05:09;;;;;;;;;;;;;;;;;;5095497;28;19926;-63
2023/03/24 11:07:35;;;;;;;;;;;;;;;;;;5077240;28;19920;-62
2023/03/24 11:10:01;;;;;;;;;;;;;;;;;;5092530;28;19928;-63
2023/03/24 11:12:27;;;;;;;;;;;;;;;;;;5093396;28;19925;-62
2023/03/24 11:14:59;;;;;;;;;;;;;;;;;;5095965;28;19924;-62
2023/03/24 11:17:25;;;;;;;;;;;;;;;;;;5092811;28;19924;-63
2023/03/24 11:19:51;;;;;;;;;;;;;;;;;;5085426;28;19921;-63
2023/03/24 11:22:17;;;;;;;;;;;;;;;;;;5087894;28;19959;-63
2023/03/24 11:24:43;;;;;;;;;;;;;;;;;;5095552;28;20386;-63
2023/03/24 11:27:11;;;;;;;;;;;;;;;;;;5088782;28;19924;-62
2023/03/24 11:29:37;;;;;;;;;;;;;;;;;;5077151;28;20338;-63
2023/03/24 11:32:04;;;;;;;;;;;;;;;;;;5094286;28;20027;-63
2023/03/24 11:34:37;;;;;;;;;;;;;;;;;;5094577;28;20014;-63
2023/03/24 11:37:03;;;;;;;;;;;;;;;;;;5092713;28;19959;-63
2023/03/24 11:39:30;;;;;;;;;;;;;;;;;;5094935;28;19950;-61
2023/03/24 11:41:56;;;;;;;;;;;;;;;;;;5095167;28;19920;-65
2023/03/24 11:44:22;;;;;;;;;;;;;;;;;;5085012;28;20338;-61
2023/03/24 11:46:48;;;;;;;;;;;;;;;;;;5089715;28;19977;-62
2023/03/24 11:49:14;;;;;;;;;;;;;;;;;;5090704;28;19964;-62
2023/03/24 11:51:40;;;;;;;;;;;;;;;;;;5093811;28;20019;-62
2023/03/24 11:54:06;;;;;;;;;;;;;;;;;;5078959;28;20007;-62
2023/03/24 11:56:32;;;;;;;;;;;;;;;;;;5057525;28;19924;-62
2023/03/24 11:58:57;;;;;;;;;;;;;;;;;;5074791;28;19920;-62
2023/03/24 12:01:23;;;;;;;;;;;;;;;;;;5067035;28;19929;-62
2023/03/24 12:03:49;;;;;;;;;;;;;;;;;;5074214;28;20371;-63
2023/03/24 12:06:15;;;;;;;;;;;;;;;;;;5086956;28;19978;-62
2023/03/24 12:08:41;;;;;;;;;;;;;;;;;;5090077;28;19926;-62
2023/03/24 12:11:07;;;;;;;;;;;;;;;;;;5065985;28;19999;-62
2023/03/24 12:13:33;;;;;;;;;;;;;;;;;;5091798;28;19973;-61
2023/03/24 12:15:59;;;;;;;;;;;;;;;;;;5093818;28;20035;-62
2023/03/24 12:18:25;;;;;;;;;;;;;;;;;;5081698;28;19928;-61
2023/03/24 12:20:52;;;;;;;;;;;;;;;;;;5089711;28;19920;-61
2023/03/24 12:23:18;;;;;;;;;;;;;;;;;;5091296;28;20322;-62
2023/03/24 12:25:44;;;;;;;;;;;;;;;;;;5092183;28;19994;-62
2023/03/24 12:28:10;;;;;;;;;;;;;;;;;;5092603;28;19924;-62
2023/03/24 12:30:36;;;;;;;;;;;;;;;;;;5092361;28;19927;-62
2023/03/24 12:33:02;;;;;;;;;;;;;;;;;;5082582;28;19928;-62
2023/03/24 12:35:28;;;;;;;;;;;;;;;;;;5075594;28;20378;-62
2023/03/24 12:37:54;;;;;;;;;;;;;;;;;;5073393;28;19963;-62
2023/03/24 12:40:20;;;;;;;;;;;;;;;;;;5073525;28;19993;-62
2023/03/24 12:42:46;;;;;;;;;;;;;;;;;;5073724;28;19921;-62
2023/03/24 12:45:12;;;;;;;;;;;;;;;;;;5073761;28;19927;-61
2023/03/24 12:47:38;;;;;;;;;;;;;;;;;;5073869;28;19967;-62
2023/03/24 12:50:04;;;;;;;;;;;;;;;;;;5073466;28;19974;-62
2023/03/24 12:52:30;;;;;;;;;;;;;;;;;;5091456;28;20378;-61
2023/03/24 12:55:03;;;;;;;;;;;;;;;;;;5094023;28;19924;-61
2023/03/24 12:57:29;;;;;;;;;;;;;;;;;;5093900;28;19963;-62
2023/03/24 12:59:56;;;;;;;;;;;;;;;;;;5093833;28;19965;-62
2023/03/24 13:02:22;;;;;;;;;;;;;;;;;;5079824;28;19967;-62
2023/03/24 13:04:48;;;;;;;;;;;;;;;;;;5079832;28;19920;-62
2023/03/24 13:07:14;;;;;;;;;;;;;;;;;;5077394;28;19925;-62
2023/03/24 13:09:40;;;;;;;;;;;;;;;;;;5078336;28;20312;-63
2023/03/24 13:12:06;;;;;;;;;;;;;;;;;;5073133;28;19928;-63
2023/03/24 13:14:32;;;;;;;;;;;;;;;;;;5072892;28;19921;-63
2023/03/24 13:16:58;;;;;;;;;;;;;;;;;;5073152;28;19963;-62
2023/03/24 13:19:24;;;;;;;;;;;;;;;;;;5087158;28;19965;-62
2023/03/24 13:21:50;;;;;;;;;;;;;;;;;;5074974;28;19923;-62
2023/03/24 13:24:16;;;;;;;;;;;;;;;;;;5092977;28;19965;-62
2023/03/24 13:26:41;;;;;;;;;;;;;;;;;;5093062;28;19924;-62
2023/03/24 13:29:08;;;;;;;;;;;;;;;;;;5093222;28;19927;-62
2023/03/24 13:31:34;;;;;;;;;;;;;;;;;;5093068;28;19931;-62
2023/03/24 13:34:00;;;;;;;;;;;;;;;;;;5091961;28;20400;-62
2023/03/24 13:36:26;;;;;;;;;;;;;;;;;;5075035;28;20296;-62
2023/03/24 13:38:52;;;;;;;;;;;;;;;;;;5092746;28;19920;-62
2023/03/24 13:41:18;;;;;;;;;;;;;;;;;;5092789;28;19920;-62
2023/03/24 13:43:44;;;;;;;;;;;;;;;;;;5092635;28;19943;-62
2023/03/24 13:46:09;;;;;;;;;;;;;;;;;;5074385;28;19947;-62
2023/03/24 13:48:36;;;;;;;;;;;;;;;;;;5091999;28;19950;-62
2023/03/24 13:51:02;;;;;;;;;;;;;;;;;;5073421;28;19928;-62
2023/03/24 13:53:28;;;;;;;;;;;;;;;;;;5092425;28;19935;-62
2023/03/24 13:55:54;;;;;;;;;;;;;;;;;;5092555;28;19927;-62
2023/03/24 13:58:20;;;;;;;;;;;;;;;;;;5074663;28;19993;-62
2023/03/24 14:00:46;;;;;;;;;;;;;;;;;;5092726;28;20373;-62
2023/03/24 14:03:12;;;;;;;;;;;;;;;;;;5092756;28;19924;-62
2023/03/24 14:05:38;;;;;;;;;;;;;;;;;;5092442;28;19920;-62
2023/03/24 14:08:04;;;;;;;;;;;;;;;;;;5092760;28;20332;-62
2023/03/24 14:10:30;;;;;;;;;;;;;;;;;;5092075;28;19928;-62
2023/03/24 14:12:56;;;;;;;;;;;;;;;;;;5056758;28;20025;-63
2023/03/24 14:15:22;;;;;;;;;;;;;;;;;;5090998;28;20518;-62
2023/03/24 14:17:48;;;;;;;;;;;;;;;;;;5092312;28;19924;-62
2023/03/24 14:20:13;;;;;;;;;;;;;;;;;;5092068;28;19931;-62
2023/03/24 14:22:40;;;;;;;;;;;;;;;;;;5073788;28;19924;-63
2023/03/24 14:25:05;;;;;;;;;;;;;;;;;;5092374;28;19946;-63
2023/03/24 14:27:33;;;;;;;;;;;;;;;;;;5092543;28;19920;-63
2023/03/24 14:29:59;;;;;;;;;;;;;;;;;;5092219;28;19959;-62
2023/03/24 14:32:24;;;;;;;;;;;;;;;;;;5091369;28;19970;-63
2023/03/24 14:34:50;;;;;;;;;;;;;;;;;;5092363;28;20276;-63
2023/03/24 14:37:17;;;;;;;;;;;;;;;;;;5067652;28;19928;-62
2023/03/24 14:39:43;;;;;;;;;;;;;;;;;;5087687;28;19927;-63
2023/03/24 14:42:08;;;;;;;;;;;;;;;;;;5080478;28;20011;-63
2023/03/24 14:44:34;;;;;;;;;;;;;;;;;;5086693;28;19921;-63
2023/03/24 14:47:00;;;;;;;;;;;;;;;;;;5088310;28;19943;-63
2023/03/24 14:49:26;;;;;;;;;;;;;;;;;;5084709;28;19929;-63
2023/03/24 14:51:52;;;;;;;;;;;;;;;;;;5084643;28;19928;-63
2023/03/24 14:54:18;;;;;;;;;;;;;;;;;;5071694;28;20437;-63
2023/03/24 14:56:44;;;;;;;;;;;;;;;;;;5090856;28;20373;-63
2023/03/24 14:59:10;;;;;;;;;;;;;;;;;;5076247;28;20369;-63
2023/03/24 15:01:36;;;;;;;;;;;;;;;;;;5089984;28;19920;-62
2023/03/24 15:04:03;;;;;;;;;;;;;;;;;;5088030;28;19924;-63
2023/03/24 15:06:29;;;;;;;;;;;;;;;;;;5080393;28;19956;-63
2023/03/24 15:08:57;;;;;;;;;;;;;;;;;;5086221;28;20365;-63
2023/03/24 15:11:24;;;;;;;;;;;;;;;;;;5076457;28;19931;-63
2023/03/24 15:13:50;;;;;;;;;;;;;;;;;;5093136;28;19931;-62
2023/03/24 15:16:16;;;;;;;;;;;;;;;;;;5091293;28;19924;-63
2023/03/24 15:18:42;;;;;;;;;;;;;;;;;;5089857;28;19927;-62
2023/03/24 15:21:08;;;;;;;;;;;;;;;;;;5091664;28;19927;-62
2023/03/24 15:23:34;;;;;;;;;;;;;;;;;;5091594;28;19983;-63
2023/03/24 15:26:00;;;;;;;;;;;;;;;;;;5095578;28;19924;-62
2023/03/24 15:28:26;;;;;;;;;;;;;;;;;;5065048;28;20006;-63
2023/03/24 15:30:52;;;;;;;;;;;;;;;;;;5093546;28;19965;-63
2023/03/24 15:33:18;;;;;;;;;;;;;;;;;;5081933;28;19929;-63
2023/03/24 15:35:44;;;;;;;;;;;;;;;;;;5074716;28;19970;-63
2023/03/24 15:38:09;;;;;;;;;;;;;;;;;;5071504;28;20273;-63
2023/03/24 15:40:35;;;;;;;;;;;;;;;;;;5083298;28;19966;-63
2023/03/24 15:43:01;;;;;;;;;;;;;;;;;;5052886;28;20357;-63
2023/03/24 15:45:28;;;;;;;;;;;;;;;;;;5088925;28;19928;-63
2023/03/24 15:47:54;;;;;;;;;;;;;;;;;;5092764;28;19920;-63
2023/03/24 15:50:20;;;;;;;;;;;;;;;;;;5075668;28;19932;-63
2023/03/24 15:52:46;;;;;;;;;;;;;;;;;;5078053;28;20284;-63
2023/03/24 15:55:12;;;;;;;;;;;;;;;;;;5072538;28;20013;-63
2023/03/24 15:57:38;;;;;;;;;;;;;;;;;;5077139;28;19921;-63
2023/03/24 16:00:10;;;;;;;;;;;;;;;;;;5070308;28;19924;-63
2023/03/24 16:02:37;;;;;;;;;;;;;;;;;;5069844;28;20546;-63
2023/03/24 16:05:04;;;;;;;;;;;;;;;;;;5094338;28;20011;-63
2023/03/24 16:07:31;;;;;;;;;;;;;;;;;;5094255;28;20049;-63
2023/03/24 16:09:58;;;;;;;;;;;;;;;;;;5070810;28;19931;-63
2023/03/24 16:12:24;;;;;;;;;;;;;;;;;;5084202;28;19924;-63
2023/03/24 16:14:50;;;;;;;;;;;;;;;;;;5092940;28;20362;-63
2023/03/24 16:17:15;;;;;;;;;;;;;;;;;;5092279;28;20006;-64
2023/03/24 16:19:41;;;;;;;;;;;;;;;;;;5070034;28;19921;-63
2023/03/24 16:22:07;;;;;;;;;;;;;;;;;;5070893;28;20273;-63
2023/03/24 16:24:33;;;;;;;;;;;;;;;;;;5090299;28;19932;-63
2023/03/24 16:26:59;;;;;;;;;;;;;;;;;;5074659;28;20035;-63
2023/03/24 16:29:25;;;;;;;;;;;;;;;;;;5073494;28;19924;-63
2023/03/24 16:56:13;;;;;;;;;;;;;;;;;;5052695;28;20014;-62
2023/03/24 16:58:39;;;;;;;;;;;;;;;;;;5034998;28;20213;-62
2023/03/24 17:01:05;;;;;;;;;;;;;;;;;;5052745;28;20605;-62
2023/03/24 17:03:31;;;;;;;;;;;;;;;;;;5034921;28;19931;-62